Time,TemperatureF,DewpointF,PressureIn,WindDirection,WindDirectionDegrees,WindSpeedMPH,WindSpeedGustMPH,Humidity,HourlyPrecipIn,Conditions,Clouds,dailyrainin,SoftwareType,DateUTC
2013-06-02 00:01:00,49.0,6.0,-100.00,WSW,248,5.0,12.0,17,-99.99,,,-99.99,,2013-06-02 06:01:00,
2013-06-02 00:12:00,49.0,6.0,-100.00,WSW,248,5.0,12.0,17,-99.99,,,-99.99,,2013-06-02 06:12:00,
2013-06-02 00:21:00,49.0,10.0,-100.00,SW,236,7.0,13.0,20,-99.99,,,-99.99,,2013-06-02 06:21:00,
2013-06-02 00:32:00,49.0,12.0,-100.00,SW,227,7.0,12.0,22,-99.99,,,-99.99,,2013-06-02 06:32:00,
2013-06-02 00:41:00,49.0,12.0,-100.00,SW,227,7.0,12.0,22,-99.99,,,-99.99,,2013-06-02 06:41:00,
2013-06-02 00:52:00,49.0,13.0,-100.00,SW,220,7.0,14.0,23,-99.99,,,-99.99,,2013-06-02 06:52:00,
2013-06-02 01:01:00,48.0,13.0,-100.00,SSW,212,7.0,14.0,24,-99.99,,,-99.99,,2013-06-02 07:01:00,
2013-06-02 01:11:00,48.0,13.0,-100.00,SSW,212,7.0,14.0,24,-99.99,,,-99.99,,2013-06-02 07:11:00,
2013-06-02 01:21:00,48.0,13.0,-100.00,SW,225,6.0,11.0,24,-99.99,,,-99.99,,2013-06-02 07:21:00,
2013-06-02 01:31:00,48.0,13.0,-100.00,SW,226,6.0,11.0,24,-99.99,,,-99.99,,2013-06-02 07:31:00,
2013-06-02 01:42:00,48.0,13.0,-100.00,SW,226,6.0,11.0,24,-99.99,,,-99.99,,2013-06-02 07:42:00,
2013-06-02 01:52:00,48.0,14.0,-100.00,South,191,10.0,14.0,25,-99.99,,,-99.99,,2013-06-02 07:52:00,
2013-06-02 02:01:00,49.0,13.0,-100.00,South,177,12.0,15.0,23,-99.99,,,-99.99,,2013-06-02 08:01:00,
2013-06-02 02:11:00,49.0,13.0,-100.00,South,177,12.0,15.0,23,-99.99,,,-99.99,,2013-06-02 08:11:00,
2013-06-02 02:21:00,49.0,13.0,-100.00,South,173,10.0,15.0,23,-99.99,,,-99.99,,2013-06-02 08:21:00,
2013-06-02 02:31:00,49.0,13.0,-100.00,SSE,164,8.0,12.0,23,-99.99,,,-99.99,,2013-06-02 08:31:00,
2013-06-02 02:41:00,49.0,13.0,-100.00,SSE,164,8.0,12.0,23,-99.99,,,-99.99,,2013-06-02 08:41:00,
2013-06-02 02:52:00,48.0,12.0,-100.00,SSE,162,10.0,14.0,23,-99.99,,,-99.99,,2013-06-02 08:52:00,
2013-06-02 03:01:00,48.0,12.0,-100.00,SSE,159,11.0,13.0,23,-99.99,,,-99.99,,2013-06-02 09:01:00,
2013-06-02 03:11:00,48.0,12.0,-100.00,SSE,159,11.0,13.0,23,-99.99,,,-99.99,,2013-06-02 09:11:00,
2013-06-02 03:21:00,48.0,12.0,-100.00,SSE,165,10.0,15.0,23,-99.99,,,-99.99,,2013-06-02 09:21:00,
2013-06-02 03:33:00,48.0,12.0,-100.00,SSE,168,11.0,14.0,23,-99.99,,,-99.99,,2013-06-02 09:33:00,
2013-06-02 03:42:00,48.0,12.0,-100.00,SSE,168,11.0,14.0,23,-99.99,,,-99.99,,2013-06-02 09:42:00,
2013-06-02 03:53:00,48.0,13.0,-100.00,South,173,12.0,15.0,24,-99.99,,,-99.99,,2013-06-02 09:53:00,
2013-06-02 04:02:00,47.0,14.0,-100.00,South,183,11.0,14.0,26,-99.99,,,-99.99,,2013-06-02 10:02:00,
2013-06-02 04:12:00,47.0,14.0,-100.00,South,183,11.0,14.0,26,-99.99,,,-99.99,,2013-06-02 10:12:00,
2013-06-02 04:22:00,46.0,14.0,-100.00,SSW,194,10.0,13.0,27,-99.99,,,-99.99,,2013-06-02 10:22:00,
2013-06-02 04:32:00,46.0,14.0,-100.00,South,185,10.0,15.0,27,-99.99,,,-99.99,,2013-06-02 10:32:00,
2013-06-02 04:42:00,46.0,14.0,-100.00,South,185,10.0,15.0,27,-99.99,,,-99.99,,2013-06-02 10:42:00,
2013-06-02 04:52:00,47.0,14.0,-100.00,South,187,11.0,15.0,26,-99.99,,,-99.99,,2013-06-02 10:52:00,
2013-06-02 05:02:00,46.0,14.0,-100.00,South,186,12.0,15.0,27,-99.99,,,-99.99,,2013-06-02 11:02:00,
2013-06-02 05:12:00,46.0,14.0,-100.00,South,186,12.0,15.0,27,-99.99,,,-99.99,,2013-06-02 11:12:00,
2013-06-02 05:21:00,46.0,14.0,-100.00,South,184,12.0,16.0,27,-99.99,,,-99.99,,2013-06-02 11:21:00,
2013-06-02 05:32:00,47.0,14.0,-100.00,SSW,196,12.0,17.0,26,-99.99,,,-99.99,,2013-06-02 11:32:00,
2013-06-02 05:42:00,47.0,14.0,-100.00,SSW,196,12.0,17.0,26,-99.99,,,-99.99,,2013-06-02 11:42:00,
2013-06-02 05:52:00,47.0,13.0,-100.00,SSW,206,9.0,17.0,25,-99.99,,,-99.99,,2013-06-02 11:52:00,
2013-06-02 06:01:00,48.0,12.0,-100.00,SW,221,8.0,13.0,23,-99.99,,,-99.99,,2013-06-02 12:01:00,
2013-06-02 06:11:00,48.0,12.0,-100.00,SW,221,8.0,13.0,23,-99.99,,,-99.99,,2013-06-02 12:11:00,
2013-06-02 06:21:00,48.0,10.0,-100.00,SW,230,7.0,15.0,21,-99.99,,,-99.99,,2013-06-02 12:21:00,
2013-06-02 06:31:00,48.0,9.0,-100.00,SW,229,8.0,14.0,20,-99.99,,,-99.99,,2013-06-02 12:31:00,
2013-06-02 06:42:00,48.0,9.0,-100.00,SW,229,8.0,14.0,20,-99.99,,,-99.99,,2013-06-02 12:42:00,
2013-06-02 06:52:00,48.0,9.0,-100.00,SW,219,9.0,21.0,20,-99.99,,,-99.99,,2013-06-02 12:52:00,
2013-06-02 07:01:00,48.0,9.0,-100.00,SSW,212,11.0,20.0,20,-99.99,,,-99.99,,2013-06-02 13:01:00,
2013-06-02 07:11:00,48.0,9.0,-100.00,SSW,212,11.0,20.0,20,-99.99,,,-99.99,,2013-06-02 13:11:00,
2013-06-02 07:21:00,49.0,11.0,-100.00,SSW,209,11.0,23.0,21,-99.99,,,-99.99,,2013-06-02 13:21:00,
2013-06-02 07:32:00,50.0,11.0,-100.00,SSW,201,12.0,27.0,20,-99.99,,,-99.99,,2013-06-02 13:32:00,
2013-06-02 07:41:00,50.0,11.0,-100.00,SSW,201,12.0,27.0,20,-99.99,,,-99.99,,2013-06-02 13:41:00,
2013-06-02 07:52:00,51.0,11.0,-100.00,South,191,12.0,25.0,20,-99.99,,,-99.99,,2013-06-02 13:52:00,
2013-06-02 08:01:00,51.0,14.0,-100.00,South,185,14.0,24.0,22,-99.99,,,-99.99,,2013-06-02 14:01:00,
2013-06-02 08:11:00,51.0,14.0,-100.00,South,185,14.0,24.0,22,-99.99,,,-99.99,,2013-06-02 14:11:00,
2013-06-02 08:21:00,52.0,13.0,-100.00,South,190,13.0,22.0,21,-99.99,,,-99.99,,2013-06-02 14:21:00,
2013-06-02 08:32:00,52.0,14.0,-100.00,South,178,15.0,25.0,22,-99.99,,,-99.99,,2013-06-02 14:32:00,
2013-06-02 08:41:00,52.0,14.0,-100.00,South,178,15.0,25.0,22,-99.99,,,-99.99,,2013-06-02 14:41:00,
2013-06-02 08:52:00,52.0,14.0,-100.00,South,181,12.0,24.0,22,-99.99,,,-99.99,,2013-06-02 14:52:00,
2013-06-02 09:01:00,52.0,16.0,-100.00,South,172,13.0,21.0,24,-99.99,,,-99.99,,2013-06-02 15:01:00,
2013-06-02 09:11:00,52.0,16.0,-100.00,South,172,13.0,21.0,24,-99.99,,,-99.99,,2013-06-02 15:11:00,
2013-06-02 09:21:00,53.0,15.0,-100.00,South,178,15.0,31.0,22,-99.99,,,-99.99,,2013-06-02 15:21:00,
2013-06-02 09:32:00,55.0,16.0,-100.00,South,176,14.0,23.0,21,-99.99,,,-99.99,,2013-06-02 15:32:00,
2013-06-02 09:42:00,55.0,16.0,-100.00,South,176,14.0,23.0,21,-99.99,,,-99.99,,2013-06-02 15:42:00,
2013-06-02 09:53:00,56.0,13.0,-100.00,South,175,14.0,29.0,18,-99.99,,,-99.99,,2013-06-02 15:53:00,
2013-06-02 10:03:00,57.0,13.0,-100.00,South,187,13.0,28.0,17,-99.99,,,-99.99,,2013-06-02 16:03:00,
2013-06-02 10:13:00,57.0,13.0,-100.00,South,187,13.0,28.0,17,-99.99,,,-99.99,,2013-06-02 16:13:00,
2013-06-02 10:23:00,57.0,13.0,-100.00,South,179,14.0,25.0,17,-99.99,,,-99.99,,2013-06-02 16:23:00,
2013-06-02 10:33:00,58.0,17.0,-100.00,SSE,153,13.0,23.0,20,-99.99,,,-99.99,,2013-06-02 16:33:00,
2013-06-02 10:42:00,58.0,17.0,-100.00,SSE,153,13.0,23.0,20,-99.99,,,-99.99,,2013-06-02 16:42:00,
2013-06-02 10:52:00,57.0,16.0,-100.00,SSE,153,15.0,26.0,20,-99.99,,,-99.99,,2013-06-02 16:52:00,
2013-06-02 11:02:00,57.0,17.0,-100.00,SE,144,19.0,29.0,21,-99.99,,,-99.99,,2013-06-02 17:02:00,
2013-06-02 11:12:00,57.0,17.0,-100.00,SE,144,19.0,29.0,21,-99.99,,,-99.99,,2013-06-02 17:12:00,
2013-06-02 11:22:00,57.0,17.0,-100.00,SE,141,20.0,27.0,21,-99.99,,,-99.99,,2013-06-02 17:22:00,
2013-06-02 11:32:00,57.0,17.0,-100.00,SE,139,20.0,26.0,21,-99.99,,,-99.99,,2013-06-02 17:32:00,
2013-06-02 11:42:00,57.0,17.0,-100.00,SE,139,20.0,26.0,21,-99.99,,,-99.99,,2013-06-02 17:42:00,
2013-06-02 11:52:00,58.0,18.0,-100.00,SE,146,21.0,32.0,21,-99.99,,,-99.99,,2013-06-02 17:52:00,
2013-06-02 12:01:00,59.0,17.0,-100.00,SSE,149,20.0,31.0,19,-99.99,,,-99.99,,2013-06-02 18:01:00,
2013-06-02 12:11:00,59.0,17.0,-100.00,SSE,149,20.0,31.0,19,-99.99,,,-99.99,,2013-06-02 18:11:00,
2013-06-02 12:21:00,59.0,16.0,-100.00,SE,146,19.0,33.0,18,-99.99,,,-99.99,,2013-06-02 18:21:00,
2013-06-02 12:32:00,61.0,13.0,-100.00,SSE,163,16.0,27.0,15,-99.99,,,-99.99,,2013-06-02 18:32:00,
2013-06-02 12:42:00,61.0,13.0,-100.00,SSE,163,16.0,27.0,15,-99.99,,,-99.99,,2013-06-02 18:42:00,
2013-06-02 12:52:00,62.0,11.0,-100.00,South,173,13.0,24.0,13,-99.99,,,-99.99,,2013-06-02 18:52:00,
2013-06-02 13:01:00,62.0,11.0,-100.00,South,179,16.0,29.0,13,-99.99,,,-99.99,,2013-06-02 19:01:00,
2013-06-02 13:11:00,62.0,11.0,-100.00,South,179,16.0,29.0,13,-99.99,,,-99.99,,2013-06-02 19:11:00,
2013-06-02 13:21:00,62.0,9.0,-100.00,SSW,195,10.0,21.0,12,-99.99,,,-99.99,,2013-06-02 19:21:00,
2013-06-02 13:31:00,62.0,9.0,-100.00,SSW,212,10.0,24.0,12,-99.99,,,-99.99,,2013-06-02 19:31:00,
2013-06-02 13:52:00,62.0,7.0,-100.00,SSW,213,12.0,27.0,11,-99.99,,,-99.99,,2013-06-02 19:52:00,
2013-06-02 14:02:00,61.0,8.0,-100.00,SW,219,12.0,21.0,12,-99.99,,,-99.99,,2013-06-02 20:02:00,
2013-06-02 14:21:00,61.0,8.0,-100.00,SW,220,13.0,29.0,12,-99.99,,,-99.99,,2013-06-02 20:21:00,
2013-06-02 14:32:00,62.0,9.0,-100.00,SW,214,12.0,22.0,12,-99.99,,,-99.99,,2013-06-02 20:32:00,
2013-06-02 14:52:00,62.0,9.0,-100.00,SW,217,14.0,24.0,12,-99.99,,,-99.99,,2013-06-02 20:52:00,
2013-06-02 15:01:00,62.0,11.0,-100.00,SW,223,12.0,27.0,13,-99.99,,,-99.99,,2013-06-02 21:01:00,
2013-06-02 15:11:00,62.0,11.0,-100.00,SW,223,12.0,27.0,13,-99.99,,,-99.99,,2013-06-02 21:11:00,
2013-06-02 15:21:00,62.0,11.0,-100.00,SW,219,15.0,31.0,13,-99.99,,,-99.99,,2013-06-02 21:21:00,
2013-06-02 15:33:00,62.0,11.0,-100.00,SW,220,16.0,29.0,13,-99.99,,,-99.99,,2013-06-02 21:33:00,
2013-06-02 16:03:00,64.0,12.0,-100.00,SSE,168,10.0,27.0,13,-99.99,,,-99.99,,2013-06-02 22:03:00,
2013-06-02 16:12:00,64.0,12.0,-100.00,SSE,168,10.0,27.0,13,-99.99,,,-99.99,,2013-06-02 22:12:00,
2013-06-02 16:23:00,64.0,10.0,-100.00,SSE,159,14.0,30.0,12,-99.99,,,-99.99,,2013-06-02 22:23:00,
2013-06-02 16:33:00,63.0,10.0,-100.00,South,171,14.0,28.0,12,-99.99,,,-99.99,,2013-06-02 22:33:00,
2013-06-02 16:52:00,65.0,11.0,-100.00,South,184,10.0,24.0,12,-99.99,,,-99.99,,2013-06-02 22:52:00,
2013-06-02 17:02:00,65.0,9.0,-100.00,South,184,13.0,27.0,11,-99.99,,,-99.99,,2013-06-02 23:02:00,
2013-06-02 17:22:00,63.0,8.0,-100.00,South,185,17.0,30.0,11,-99.99,,,-99.99,,2013-06-02 23:22:00,
2013-06-02 17:32:00,64.0,8.0,-100.00,South,181,14.0,30.0,11,-99.99,,,-99.99,,2013-06-02 23:32:00,
2013-06-02 17:52:00,63.0,6.0,-100.00,South,174,14.0,26.0,10,-99.99,,,-99.99,,2013-06-02 23:52:00,
2013-06-02 18:01:00,64.0,6.0,-100.00,SSW,200,14.0,32.0,10,-99.99,,,-99.99,,2013-06-03 00:01:00,
2013-06-02 18:21:00,64.0,6.0,-100.00,South,191,12.0,24.0,10,-99.99,,,-99.99,,2013-06-03 00:21:00,
2013-06-02 18:42:00,64.0,6.0,-100.00,South,191,12.0,24.0,10,-99.99,,,-99.99,,2013-06-03 00:42:00,
2013-06-02 19:01:00,64.0,4.0,-100.00,SW,217,11.0,19.0,9,-99.99,,,-99.99,,2013-06-03 01:01:00,
2013-06-02 19:11:00,64.0,4.0,-100.00,SW,217,11.0,19.0,9,-99.99,,,-99.99,,2013-06-03 01:11:00,
2013-06-02 19:32:00,63.0,3.0,-100.00,SW,216,10.0,21.0,9,-99.99,,,-99.99,,2013-06-03 01:32:00,
2013-06-02 19:52:00,63.0,3.0,-100.00,SSW,206,12.0,25.0,9,-99.99,,,-99.99,,2013-06-03 01:52:00,
2013-06-02 20:02:00,63.0,3.0,-100.00,SW,222,9.0,17.0,9,-99.99,,,-99.99,,2013-06-03 02:02:00,
2013-06-02 20:32:00,61.0,2.0,-100.00,SW,216,9.0,21.0,9,-99.99,,,-99.99,,2013-06-03 02:32:00,
2013-06-02 20:52:00,60.0,1.0,-100.00,SSW,204,10.0,19.0,9,-99.99,,,-99.99,,2013-06-03 02:52:00,
2013-06-02 21:02:00,59.0,3.0,-100.00,SSW,202,10.0,18.0,10,-99.99,,,-99.99,,2013-06-03 03:02:00,
2013-06-02 21:33:00,58.0,2.0,-100.00,SSW,213,8.0,16.0,10,-99.99,,,-99.99,,2013-06-03 03:33:00,
2013-06-02 21:53:00,58.0,2.0,-100.00,SSW,207,11.0,20.0,10,-99.99,,,-99.99,,2013-06-03 03:53:00,
2013-06-02 22:02:00,58.0,2.0,-100.00,SSW,210,12.0,22.0,10,-99.99,,,-99.99,,2013-06-03 04:02:00,
2013-06-02 22:33:00,58.0,0.0,-100.00,SSW,201,15.0,23.0,9,-99.99,,,-99.99,,2013-06-03 04:33:00,
2013-06-02 23:02:00,59.0,0.0,-100.00,SSW,204,12.0,21.0,9,-99.99,,,-99.99,,2013-06-03 05:02:00,
2013-06-02 23:32:00,58.0,0.0,-100.00,South,179,17.0,25.0,9,-99.99,,,-99.99,,2013-06-03 05:32:00,